Time;durP1;ratioP1;P1;durP2;ratioP2;P2;SDS_P1;SDS_P2;PMS_P1;PMS_P2;Temp;Humidity;BMP_temperature;BMP_pressure;BME280_temperature;BME280_humidity;BME280_pressure;Samples;Min_cycle;Max_cycle;Signal;HPM_P1;HPM_P2
2024/02/04 00:01:40;;;;;;;14.73;10.40;;;;;;;;;;5056018;28;20562;-84
2024/02/04 00:04:07;;;;;;;14.25;11.68;;;;;;;;;;5040611;28;20275;-84
2024/02/04 00:06:33;;;;;;;15.15;12.20;;;;;;;;;;5075540;28;20175;-84
2024/02/04 00:08:58;;;;;;;15.43;10.70;;;;;;;;;;5074992;28;20238;-84
2024/02/04 00:11:25;;;;;;;14.00;10.23;;;;;;;;;;5075373;28;20180;-84
2024/02/04 00:13:51;;;;;;;12.20;8.95;;;;;;;;;;5075181;28;20407;-84
2024/02/04 00:16:17;;;;;;;10.93;9.38;;;;;;;;;;5073644;28;20188;-85
2024/02/04 00:18:43;;;;;;;11.40;7.40;;;;;;;;;;5056937;28;20605;-85
2024/02/04 00:21:09;;;;;;;8.33;7.43;;;;;;;;;;5074958;28;20455;-85
2024/02/04 00:23:35;;;;;;;8.63;7.32;;;;;;;;;;5057158;28;20414;-85
2024/02/04 00:26:02;;;;;;;8.85;7.15;;;;;;;;;;5074785;28;20583;-85
2024/02/04 00:28:28;;;;;;;7.57;6.78;;;;;;;;;;5040062;28;20264;-85
2024/02/04 00:30:58;;;;;;;8.00;6.90;;;;;;;;;;5040463;28;20188;-85
2024/02/04 00:33:24;;;;;;;7.63;6.35;;;;;;;;;;5057091;28;20435;-85
2024/02/04 00:35:51;;;;;;;8.95;8.05;;;;;;;;;;5039893;28;20637;-85
2024/02/04 00:38:17;;;;;;;6.70;6.10;;;;;;;;;;5076941;28;20628;-86
2024/02/04 00:40:43;;;;;;;5.40;4.90;;;;;;;;;;5043370;28;20223;-85
2024/02/04 00:43:09;;;;;;;5.53;4.95;;;;;;;;;;5066822;28;20185;-85
2024/02/04 00:45:35;;;;;;;6.97;5.30;;;;;;;;;;5063115;28;20195;-85
2024/02/04 00:48:01;;;;;;;5.67;4.93;;;;;;;;;;5058812;28;20251;-85
2024/02/04 00:50:27;;;;;;;4.60;4.20;;;;;;;;;;5036041;28;20803;-85
2024/02/04 00:52:53;;;;;;;5.10;4.17;;;;;;;;;;5040389;28;20400;-85
2024/02/04 00:55:19;;;;;;;3.55;3.25;;;;;;;;;;5057149;28;20509;-85
2024/02/04 00:57:45;;;;;;;4.25;3.25;;;;;;;;;;5023759;28;20257;-86
2024/02/04 01:00:12;;;;;;;3.00;2.70;;;;;;;;;;5024800;28;20683;-85
2024/02/04 01:02:39;;;;;;;3.05;2.85;;;;;;;;;;5041110;28;20408;-85
2024/02/04 01:05:05;;;;;;;3.05;2.75;;;;;;;;;;5062063;28;20185;-85
2024/02/04 01:07:31;;;;;;;3.58;3.03;;;;;;;;;;5039717;28;20212;-85
2024/02/04 01:09:57;;;;;;;3.30;3.00;;;;;;;;;;5040447;28;20170;-85
2024/02/04 01:12:23;;;;;;;3.50;3.20;;;;;;;;;;5057991;28;20454;-85
2024/02/04 01:14:49;;;;;;;8.10;2.63;;;;;;;;;;5062347;28;20455;-85
2024/02/04 01:17:15;;;;;;;3.23;2.93;;;;;;;;;;5024377;28;20182;-85
2024/02/04 01:19:41;;;;;;;3.27;2.97;;;;;;;;;;5040214;28;20927;-86
2024/02/04 01:22:07;;;;;;;5.80;4.10;;;;;;;;;;5042113;28;20891;-86
2024/02/04 01:24:33;;;;;;;3.63;3.27;;;;;;;;;;5060270;28;20405;-86
2024/02/04 01:26:59;;;;;;;4.10;3.30;;;;;;;;;;5076191;28;21039;-86
2024/02/04 01:29:25;;;;;;;4.73;4.00;;;;;;;;;;5040046;28;20534;-86
2024/02/04 01:31:51;;;;;;;5.47;3.70;;;;;;;;;;5023035;28;20454;-85
2024/02/04 01:34:17;;;;;;;4.18;3.80;;;;;;;;;;5059409;28;20427;-86
2024/02/04 01:36:43;;;;;;;8.82;4.78;;;;;;;;;;5048063;28;20272;-85
2024/02/04 01:39:10;;;;;;;5.45;3.88;;;;;;;;;;5036006;28;20192;-87
2024/02/04 01:41:36;;;;;;;8.18;3.38;;;;;;;;;;5076302;28;20711;-86
2024/02/04 01:44:02;;;;;;;4.45;4.03;;;;;;;;;;5059336;28;20191;-85
2024/02/04 01:46:29;;;;;;;5.80;4.53;;;;;;;;;;5075997;28;20187;-86
2024/02/04 01:48:55;;;;;;;6.30;3.40;;;;;;;;;;5075714;28;20665;-86
2024/02/04 01:51:21;;;;;;;5.63;2.90;;;;;;;;;;5076542;28;20210;-86
2024/02/04 01:53:48;;;;;;;4.65;3.20;;;;;;;;;;5059381;28;20177;-87
2024/02/04 01:56:14;;;;;;;6.20;3.53;;;;;;;;;;5058143;28;20719;-87
2024/02/04 01:58:40;;;;;;;3.25;2.95;;;;;;;;;;5059563;28;20195;-87
2024/02/04 02:01:06;;;;;;;3.92;3.20;;;;;;;;;;5058948;28;20228;-86
2024/02/04 02:03:33;;;;;;;3.30;2.65;;;;;;;;;;5059328;28;20181;-87
2024/02/04 02:06:00;;;;;;;7.05;3.20;;;;;;;;;;5059090;28;20643;-87
2024/02/04 02:08:26;;;;;;;4.55;2.90;;;;;;;;;;5059494;28;20738;-86
2024/02/04 02:10:56;;;;;;;4.37;3.37;;;;;;;;;;5076077;28;20212;-87
2024/02/04 02:13:24;;;;;;;4.82;3.35;;;;;;;;;;5076303;28;20431;-87
2024/02/04 02:15:56;;;;;;;3.20;2.25;;;;;;;;;;5059031;28;20211;-88
2024/02/04 02:18:26;;;;;;;3.65;2.80;;;;;;;;;;5058971;28;20234;-87
2024/02/04 02:21:10;;;;;;;4.28;3.40;;;;;;;;;;5057513;28;20204;-86
2024/02/04 02:24:00;;;;;;;4.03;3.63;;;;;;;;;;5074980;28;20200;-86
2024/02/04 02:26:26;;;;;;;3.72;3.17;;;;;;;;;;5050120;28;20669;-87
2024/02/04 02:28:52;;;;;;;3.85;3.38;;;;;;;;;;5058587;28;20656;-88
2024/02/04 02:31:18;;;;;;;3.17;2.60;;;;;;;;;;5058131;28;20189;-87
2024/02/04 02:33:46;;;;;;;3.03;2.73;;;;;;;;;;5058719;28;20504;-88
2024/02/04 02:36:17;;;;;;;3.70;2.63;;;;;;;;;;5058089;28;20476;-88
2024/02/04 02:38:55;;;;;;;3.83;3.42;;;;;;;;;;5075643;28;20181;-88
2024/02/04 02:41:21;;;;;;;3.92;3.35;;;;;;;;;;5058593;28;20702;-88
2024/02/04 02:43:48;;;;;;;3.40;3.10;;;;;;;;;;5058503;28;20283;-88
2024/02/04 02:46:14;;;;;;;3.88;2.92;;;;;;;;;;5058379;28;20211;-88
2024/02/04 02:48:40;;;;;;;4.32;2.78;;;;;;;;;;5058493;28;20231;-88
2024/02/04 02:51:06;;;;;;;5.70;3.20;;;;;;;;;;5057953;28;20173;-88
2024/02/04 02:53:35;;;;;;;3.10;2.80;;;;;;;;;;5057373;28;20697;-88
2024/02/04 02:56:01;;;;;;;2.17;1.92;;;;;;;;;;5074972;28;20434;-89
2024/02/04 02:58:27;;;;;;;3.58;3.22;;;;;;;;;;5076253;28;20173;-88
2024/02/04 03:00:53;;;;;;;2.90;2.60;;;;;;;;;;5057324;28;20749;-89
2024/02/04 03:03:19;;;;;;;4.47;3.15;;;;;;;;;;5056644;28;20961;-89
2024/02/04 03:05:45;;;;;;;4.13;3.20;;;;;;;;;;5058187;28;20189;-87
2024/02/04 03:08:11;;;;;;;3.57;3.20;;;;;;;;;;5057592;28;20480;-88
2024/02/04 03:10:41;;;;;;;4.30;3.70;;;;;;;;;;5056916;28;20426;-88
2024/02/04 03:13:08;;;;;;;4.20;3.80;;;;;;;;;;5057466;28;20484;-87
2024/02/04 03:15:34;;;;;;;4.53;4.13;;;;;;;;;;5058139;28;20753;-88
2024/02/04 03:18:00;;;;;;;6.68;4.43;;;;;;;;;;5075033;28;20180;-88
2024/02/04 03:20:26;;;;;;;4.32;3.72;;;;;;;;;;5075286;28;20201;-88
2024/02/04 03:22:52;;;;;;;9.05;4.13;;;;;;;;;;5057419;28;20665;-88
2024/02/04 03:25:18;;;;;;;6.22;4.07;;;;;;;;;;5056999;28;20181;-88
2024/02/04 03:27:46;;;;;;;5.73;4.47;;;;;;;;;;5052826;28;20241;-88
2024/02/04 03:30:12;;;;;;;6.95;4.70;;;;;;;;;;5057619;28;20446;-89
2024/02/04 03:32:38;;;;;;;5.13;3.75;;;;;;;;;;5056682;28;20180;-89
2024/02/04 03:35:04;;;;;;;5.60;4.40;;;;;;;;;;5056894;28;20283;-89
2024/02/04 03:37:30;;;;;;;4.88;4.25;;;;;;;;;;5056980;28;20225;-89
2024/02/04 03:39:58;;;;;;;5.97;4.70;;;;;;;;;;5074876;28;20173;-90
2024/02/04 03:42:24;;;;;;;9.15;4.95;;;;;;;;;;5056852;28;20439;-90
2024/02/04 03:44:50;;;;;;;5.82;4.85;;;;;;;;;;5057826;28;20181;-90
2024/02/04 03:47:16;;;;;;;7.05;5.75;;;;;;;;;;5057317;28;20173;-89
2024/02/04 03:49:42;;;;;;;7.40;5.07;;;;;;;;;;5057000;28;20195;-90
2024/02/04 03:52:08;;;;;;;5.20;4.70;;;;;;;;;;5057278;28;20580;-89
2024/02/04 03:54:34;;;;;;;6.28;5.20;;;;;;;;;;5054123;28;20247;-89
2024/02/04 03:57:00;;;;;;;7.70;5.27;;;;;;;;;;5056850;28;20185;-89
2024/02/04 03:59:26;;;;;;;7.10;4.68;;;;;;;;;;5057239;28;20761;-90
2024/02/04 04:01:57;;;;;;;8.38;5.68;;;;;;;;;;5074590;28;20550;-88
2024/02/04 04:04:23;;;;;;;7.03;5.63;;;;;;;;;;5055820;28;20564;-88
2024/02/04 04:06:49;;;;;;;6.18;5.40;;;;;;;;;;5057068;28;20173;-90
2024/02/04 04:09:15;;;;;;;6.53;5.45;;;;;;;;;;5056616;28;20180;-90
2024/02/04 04:11:44;;;;;;;5.95;5.15;;;;;;;;;;5056545;28;20180;-89
2024/02/04 04:14:10;;;;;;;6.10;5.10;;;;;;;;;;5056389;28;20184;-89
2024/02/04 04:16:36;;;;;;;5.85;4.80;;;;;;;;;;5075940;28;20218;-89
2024/02/04 04:19:04;;;;;;;8.52;5.25;;;;;;;;;;5056663;28;20188;-89
2024/02/04 04:21:30;;;;;;;4.88;4.00;;;;;;;;;;5036308;28;20212;-90
2024/02/04 04:23:56;;;;;;;9.20;4.15;;;;;;;;;;5053479;28;20189;-90
2024/02/04 04:26:22;;;;;;;5.03;3.67;;;;;;;;;;5052738;28;20182;-90
2024/02/04 04:28:48;;;;;;;4.13;3.72;;;;;;;;;;5037405;28;20187;-89
2024/02/04 04:31:17;;;;;;;4.63;3.70;;;;;;;;;;5040066;28;20193;-90
2024/02/04 04:33:43;;;;;;;3.85;3.45;;;;;;;;;;5053655;28;20177;-89
2024/02/04 04:36:09;;;;;;;4.30;3.85;;;;;;;;;;5037005;28;20181;-89
2024/02/04 04:38:35;;;;;;;6.68;4.57;;;;;;;;;;5052126;28;20185;-89
2024/02/04 04:41:01;;;;;;;5.95;4.70;;;;;;;;;;5036825;28;20780;-89
2024/02/04 04:43:27;;;;;;;9.10;4.35;;;;;;;;;;5036755;28;20543;-89
2024/02/04 04:45:53;;;;;;;10.38;4.43;;;;;;;;;;5071274;28;20181;-89
2024/02/04 04:48:19;;;;;;;6.25;4.95;;;;;;;;;;5056100;28;20196;-89
2024/02/04 04:50:45;;;;;;;5.10;4.60;;;;;;;;;;5087739;28;20233;-88
2024/02/04 04:53:14;;;;;;;6.10;4.90;;;;;;;;;;5088717;28;20422;-90
2024/02/04 04:55:40;;;;;;;6.10;4.68;;;;;;;;;;5056716;28;20177;-90
2024/02/04 04:58:08;;;;;;;9.90;5.60;;;;;;;;;;5056175;28;20267;-89
2024/02/04 05:00:36;;;;;;;8.43;5.20;;;;;;;;;;5056188;28;20212;-89
2024/02/04 05:03:03;;;;;;;8.68;6.25;;;;;;;;;;5056354;28;20173;-89
2024/02/04 05:05:29;;;;;;;7.15;6.13;;;;;;;;;;5056520;28;20177;-88
2024/02/04 05:07:57;;;;;;;6.95;5.93;;;;;;;;;;5074393;28;20260;-88
2024/02/04 05:10:23;;;;;;;10.63;7.22;;;;;;;;;;5034948;28;20194;-88
2024/02/04 05:12:50;;;;;;;9.50;6.40;;;;;;;;;;5052490;28;20173;-88
2024/02/04 05:15:16;;;;;;;8.07;6.10;;;;;;;;;;5055937;28;20418;-89
2024/02/04 05:17:42;;;;;;;9.35;7.32;;;;;;;;;;5055728;28;20172;-89
2024/02/04 05:20:08;;;;;;;9.60;6.18;;;;;;;;;;5055600;28;20184;-89
2024/02/04 05:22:35;;;;;;;9.10;5.70;;;;;;;;;;5073630;28;20184;-89
2024/02/04 05:25:01;;;;;;;7.30;5.43;;;;;;;;;;5059238;28;20185;-89
2024/02/04 05:27:27;;;;;;;6.95;6.18;;;;;;;;;;5058781;28;20232;-89
2024/02/04 05:29:56;;;;;;;5.63;5.00;;;;;;;;;;5077413;28;20259;-88
2024/02/04 05:32:24;;;;;;;8.50;5.40;;;;;;;;;;5059204;28;20184;-88
2024/02/04 05:34:50;;;;;;;5.80;4.70;;;;;;;;;;5059914;28;20181;-89
2024/02/04 05:37:19;;;;;;;7.18;4.63;;;;;;;;;;5047331;28;20185;-89
2024/02/04 05:39:45;;;;;;;5.38;4.53;;;;;;;;;;5039349;28;20256;-89
2024/02/04 05:42:11;;;;;;;5.85;5.10;;;;;;;;;;5056150;28;20212;-88
2024/02/04 05:44:37;;;;;;;5.15;4.53;;;;;;;;;;5058361;28;20184;-88
2024/02/04 05:47:03;;;;;;;7.05;4.75;;;;;;;;;;5076910;28;20177;-87
2024/02/04 05:49:29;;;;;;;6.70;4.25;;;;;;;;;;5059070;28;20172;-88
2024/02/04 05:51:55;;;;;;;5.40;4.57;;;;;;;;;;5059026;28;20185;-87
2024/02/04 05:54:21;;;;;;;9.10;5.57;;;;;;;;;;5058645;28;20512;-88
2024/02/04 05:57:04;;;;;;;6.63;5.30;;;;;;;;;;5059043;28;20223;-88
2024/02/04 05:59:33;;;;;;;8.60;5.10;;;;;;;;;;5059284;28;20182;-89
2024/02/04 06:02:02;;;;;;;5.82;4.72;;;;;;;;;;5041900;28;20299;-89
2024/02/04 06:04:28;;;;;;;6.32;4.45;;;;;;;;;;5058960;28;20176;-89
2024/02/04 06:06:54;;;;;;;7.65;5.90;;;;;;;;;;5077200;28;20207;-89
2024/02/04 06:09:20;;;;;;;6.68;4.93;;;;;;;;;;5058509;28;20197;-89
2024/02/04 06:11:46;;;;;;;11.82;5.32;;;;;;;;;;5058712;28;20189;-88
2024/02/04 06:14:13;;;;;;;7.18;5.10;;;;;;;;;;5058938;28;20603;-89
2024/02/04 06:16:39;;;;;;;8.18;5.00;;;;;;;;;;5057600;28;20276;-88
2024/02/04 06:19:06;;;;;;;5.80;4.50;;;;;;;;;;5058035;28;20219;-88
2024/02/04 06:21:32;;;;;;;7.20;5.32;;;;;;;;;;5058450;28;20204;-88
2024/02/04 06:23:59;;;;;;;6.30;4.22;;;;;;;;;;5058596;28;20687;-88
2024/02/04 06:26:25;;;;;;;4.95;3.83;;;;;;;;;;5057800;28;20180;-88
2024/02/04 06:28:51;;;;;;;3.67;3.38;;;;;;;;;;5058675;28;20625;-89
2024/02/04 06:31:19;;;;;;;5.55;3.42;;;;;;;;;;5058528;28;20330;-88
2024/02/04 06:33:45;;;;;;;4.10;3.22;;;;;;;;;;5056683;28;20177;-88
2024/02/04 06:36:12;;;;;;;2.90;2.60;;;;;;;;;;5057452;28;20191;-87
2024/02/04 06:38:40;;;;;;;3.13;2.50;;;;;;;;;;5058125;28;20180;-88
2024/02/04 06:41:06;;;;;;;3.10;2.67;;;;;;;;;;5058035;28;20204;-87
2024/02/04 06:43:32;;;;;;;4.30;2.38;;;;;;;;;;5056230;28;20570;-88
2024/02/04 06:45:58;;;;;;;3.33;2.42;;;;;;;;;;5058447;28;20180;-88
2024/02/04 06:48:24;;;;;;;2.70;2.25;;;;;;;;;;5075550;28;20181;-86
2024/02/04 06:50:50;;;;;;;2.47;2.15;;;;;;;;;;5041745;28;20181;-86
2024/02/04 06:53:16;;;;;;;3.17;2.60;;;;;;;;;;5057600;28;20180;-86
2024/02/04 06:55:42;;;;;;;2.20;2.00;;;;;;;;;;5058158;28;20415;-86
2024/02/04 06:58:08;;;;;;;2.70;2.27;;;;;;;;;;5075823;28;20399;-87
2024/02/04 07:00:34;;;;;;;2.25;2.05;;;;;;;;;;5057980;28;20463;-86
2024/02/04 07:03:00;;;;;;;3.13;2.40;;;;;;;;;;5058020;28;20204;-86
2024/02/04 07:05:26;;;;;;;2.85;1.95;;;;;;;;;;5075047;28;20654;-87
2024/02/04 07:07:52;;;;;;;3.17;2.30;;;;;;;;;;5072344;28;20215;-85
2024/02/04 07:10:19;;;;;;;2.00;1.70;;;;;;;;;;5064180;28;20415;-86
2024/02/04 07:12:45;;;;;;;2.38;2.05;;;;;;;;;;5058090;28;20439;-86
2024/02/04 07:15:11;;;;;;;3.63;2.22;;;;;;;;;;5046847;28;20276;-86
2024/02/04 07:17:37;;;;;;;2.05;1.65;;;;;;;;;;5037944;28;20275;-86
2024/02/04 07:20:03;;;;;;;2.63;2.42;;;;;;;;;;5037474;28;20260;-85
2024/02/04 07:22:29;;;;;;;2.40;2.03;;;;;;;;;;5068067;28;20185;-86
2024/02/04 07:24:55;;;;;;;2.58;1.75;;;;;;;;;;5076223;28;20169;-85
2024/02/04 07:27:21;;;;;;;2.17;1.80;;;;;;;;;;5057239;28;20254;-86
2024/02/04 07:29:47;;;;;;;1.93;1.73;;;;;;;;;;5042918;28;20439;-86
2024/02/04 07:32:14;;;;;;;2.33;2.07;;;;;;;;;;5037628;28;20423;-85
2024/02/04 07:34:42;;;;;;;2.08;1.88;;;;;;;;;;5037732;28;20814;-85
2024/02/04 07:37:08;;;;;;;1.45;1.13;;;;;;;;;;5054286;28;20182;-86
2024/02/04 07:39:34;;;;;;;2.23;2.03;;;;;;;;;;5073137;28;20187;-86
2024/02/04 07:42:01;;;;;;;3.05;2.10;;;;;;;;;;5057310;28;20559;-85
2024/02/04 07:44:27;;;;;;;2.17;1.98;;;;;;;;;;5075074;28;20176;-85
2024/02/04 07:46:53;;;;;;;2.17;1.80;;;;;;;;;;5040234;28;20628;-85
2024/02/04 07:49:19;;;;;;;2.40;2.20;;;;;;;;;;5057172;28;20546;-85
2024/02/04 07:51:45;;;;;;;3.35;2.90;;;;;;;;;;5057315;28;20180;-86
2024/02/04 07:54:11;;;;;;;2.40;2.20;;;;;;;;;;5052080;28;20188;-86
2024/02/04 07:56:37;;;;;;;2.42;1.85;;;;;;;;;;5056937;28;20918;-86
2024/02/04 07:59:03;;;;;;;2.73;2.50;;;;;;;;;;5057190;28;20189;-86
2024/02/04 08:01:30;;;;;;;2.53;1.97;;;;;;;;;;5057237;28;20482;-86
2024/02/04 08:03:56;;;;;;;2.28;1.90;;;;;;;;;;5056887;28;20426;-85
2024/02/04 08:06:22;;;;;;;5.00;2.38;;;;;;;;;;5056940;28;20181;-87
2024/02/04 08:08:48;;;;;;;2.60;2.28;;;;;;;;;;5056534;28;20176;-87
2024/02/04 08:11:18;;;;;;;3.38;2.30;;;;;;;;;;5055506;28;20295;-87
2024/02/04 08:13:44;;;;;;;1.80;1.70;;;;;;;;;;5073465;28;20185;-86
2024/02/04 08:16:13;;;;;;;4.10;2.53;;;;;;;;;;5055056;28;20238;-89
2024/02/04 08:18:39;;;;;;;2.70;2.15;;;;;;;;;;5056431;28;20181;-86
2024/02/04 08:21:05;;;;;;;2.83;2.25;;;;;;;;;;5071495;28;20215;-95
2024/02/04 08:23:31;;;;;;;3.25;2.35;;;;;;;;;;5073606;28;20188;-95
2024/02/04 08:25:57;;;;;;;2.55;2.35;;;;;;;;;;5058901;28;20210;-93
2024/02/04 08:28:23;;;;;;;5.63;3.35;;;;;;;;;;5072790;28;20232;-92
2024/02/04 08:30:50;;;;;;;4.70;2.90;;;;;;;;;;5057547;28;20267;-91
2024/02/04 08:33:16;;;;;;;4.20;2.88;;;;;;;;;;5057360;28;20415;-82
2024/02/04 08:35:42;;;;;;;3.20;2.70;;;;;;;;;;5053729;28;20216;-82
2024/02/04 08:38:08;;;;;;;2.17;1.87;;;;;;;;;;5056726;28;20181;-82
2024/02/04 08:40:34;;;;;;;5.40;2.93;;;;;;;;;;5040299;28;20471;-82
2024/02/04 08:43:00;;;;;;;3.50;2.40;;;;;;;;;;5057041;28;20410;-83
2024/02/04 08:45:26;;;;;;;4.03;2.37;;;;;;;;;;5039798;28;20439;-82
2024/02/04 08:47:52;;;;;;;3.08;2.78;;;;;;;;;;5057072;28;20887;-81
2024/02/04 08:50:18;;;;;;;2.88;2.58;;;;;;;;;;5057032;28;20604;-82
2024/02/04 08:52:44;;;;;;;3.20;2.23;;;;;;;;;;5041511;28;20216;-82
2024/02/04 08:55:09;;;;;;;2.80;2.30;;;;;;;;;;5057575;28;20906;-82
2024/02/04 08:57:35;;;;;;;5.57;2.37;;;;;;;;;;5074877;28;20460;-81
2024/02/04 09:00:02;;;;;;;2.60;1.73;;;;;;;;;;5060114;28;20435;-82
2024/02/04 09:02:28;;;;;;;1.92;1.48;;;;;;;;;;5044413;28;20415;-83
2024/02/04 09:04:54;;;;;;;1.70;1.60;;;;;;;;;;5079136;28;20226;-82
2024/02/04 09:07:20;;;;;;;2.17;1.50;;;;;;;;;;5079283;28;20624;-81
2024/02/04 09:09:46;;;;;;;2.00;1.50;;;;;;;;;;5044420;28;20411;-83
2024/02/04 09:12:12;;;;;;;1.97;1.80;;;;;;;;;;5078766;28;20317;-82
2024/02/04 09:14:38;;;;;;;2.03;1.47;;;;;;;;;;5078128;28;20424;-85
2024/02/04 09:17:06;;;;;;;1.87;1.50;;;;;;;;;;5060047;28;20522;-84
2024/02/04 09:19:32;;;;;;;2.40;1.30;;;;;;;;;;5075429;28;20526;-84
2024/02/04 09:21:58;;;;;;;1.63;1.20;;;;;;;;;;5043791;28;20235;-84
2024/02/04 09:24:23;;;;;;;1.70;1.50;;;;;;;;;;5079159;28;20411;-83
2024/02/04 09:26:49;;;;;;;1.67;1.30;;;;;;;;;;5059205;28;20942;-85
2024/02/04 09:29:15;;;;;;;2.00;1.80;;;;;;;;;;5059652;28;20506;-84
2024/02/04 09:31:41;;;;;;;2.78;1.50;;;;;;;;;;5056250;28;20485;-85
2024/02/04 09:34:08;;;;;;;1.60;1.27;;;;;;;;;;5058904;28;20551;-85
2024/02/04 09:36:34;;;;;;;2.88;1.55;;;;;;;;;;5057513;28;21028;-86
2024/02/04 09:39:00;;;;;;;2.10;1.90;;;;;;;;;;5055833;28;20284;-87
2024/02/04 09:41:26;;;;;;;3.10;1.80;;;;;;;;;;5041525;28;20973;-85
2024/02/04 09:43:52;;;;;;;2.13;1.92;;;;;;;;;;5058173;28;20489;-84
2024/02/04 09:46:19;;;;;;;2.88;1.83;;;;;;;;;;5078008;28;20169;-85
2024/02/04 09:48:49;;;;;;;2.55;1.50;;;;;;;;;;5062517;28;20181;-86
2024/02/04 09:51:15;;;;;;;2.33;1.60;;;;;;;;;;5075759;28;20516;-87
2024/02/04 09:53:44;;;;;;;1.70;1.60;;;;;;;;;;5042596;28;20181;-86
2024/02/04 09:56:10;;;;;;;3.83;1.92;;;;;;;;;;5058986;28;20173;-86
2024/02/04 09:58:36;;;;;;;3.40;1.45;;;;;;;;;;5058459;28;20577;-86
2024/02/04 10:01:03;;;;;;;2.95;2.03;;;;;;;;;;5040518;28;20205;-87
2024/02/04 10:03:30;;;;;;;6.18;2.42;;;;;;;;;;5076590;28;20629;-85
2024/02/04 10:05:57;;;;;;;2.00;1.60;;;;;;;;;;5076793;28;20180;-86
2024/02/04 10:08:23;;;;;;;2.85;1.90;;;;;;;;;;5058142;28;20386;-88
2024/02/04 10:10:49;;;;;;;3.05;1.92;;;;;;;;;;5075290;28;20181;-87
2024/02/04 10:13:15;;;;;;;2.30;1.75;;;;;;;;;;5058129;28;20204;-87
2024/02/04 10:15:41;;;;;;;4.53;2.17;;;;;;;;;;5058124;28;20727;-87
2024/02/04 10:18:08;;;;;;;1.70;1.60;;;;;;;;;;5055461;28;20401;-86
2024/02/04 10:20:34;;;;;;;1.95;1.45;;;;;;;;;;5056059;28;20189;-86
2024/02/04 10:23:00;;;;;;;2.15;1.50;;;;;;;;;;5056543;28;20219;-85
2024/02/04 10:25:26;;;;;;;1.95;1.55;;;;;;;;;;5056270;28;20195;-86
2024/02/04 10:27:53;;;;;;;2.22;2.03;;;;;;;;;;5073028;28;20232;-86
2024/02/04 10:30:22;;;;;;;2.90;2.00;;;;;;;;;;5075106;28;20211;-87
2024/02/04 10:32:51;;;;;;;2.15;1.80;;;;;;;;;;5075083;28;20247;-86
2024/02/04 10:35:20;;;;;;;2.15;1.92;;;;;;;;;;5075150;28;20515;-84
2024/02/04 10:37:46;;;;;;;2.25;1.88;;;;;;;;;;5056144;28;20294;-83
2024/02/04 10:40:12;;;;;;;2.35;2.15;;;;;;;;;;5074784;28;20177;-83
2024/02/04 10:42:40;;;;;;;1.75;1.50;;;;;;;;;;5073871;28;20197;-85
2024/02/04 10:45:08;;;;;;;1.77;1.40;;;;;;;;;;5040768;28;20173;-84
2024/02/04 10:47:37;;;;;;;1.40;1.17;;;;;;;;;;5053728;28;20606;-86
2024/02/04 10:50:03;;;;;;;1.33;1.23;;;;;;;;;;5074412;28;20195;-85
2024/02/04 10:52:32;;;;;;;2.38;1.40;;;;;;;;;;5074890;28;20580;-85
2024/02/04 10:54:59;;;;;;;1.98;0.90;;;;;;;;;;5073005;28;20263;-86
2024/02/04 10:57:26;;;;;;;1.20;1.10;;;;;;;;;;5073715;28;20188;-84
2024/02/04 10:59:52;;;;;;;2.97;1.35;;;;;;;;;;5056423;28;20243;-84
2024/02/04 11:02:19;;;;;;;1.60;0.90;;;;;;;;;;5069535;28;20350;-86
2024/02/04 11:04:46;;;;;;;3.40;1.20;;;;;;;;;;5037169;28;20280;-85
2024/02/04 11:07:14;;;;;;;1.60;1.27;;;;;;;;;;5062063;28;20183;-85
2024/02/04 11:09:40;;;;;;;3.20;1.20;;;;;;;;;;5072673;28;20609;-85
2024/02/04 11:12:09;;;;;;;2.10;1.23;;;;;;;;;;5073315;28;20177;-85
2024/02/04 11:14:36;;;;;;;1.00;0.82;;;;;;;;;;5073457;28;20241;-84
2024/02/04 11:17:05;;;;;;;2.63;1.20;;;;;;;;;;5054215;28;20174;-84
2024/02/04 11:19:50;;;;;;;2.58;1.40;;;;;;;;;;5055359;28;20248;-83
2024/02/04 11:22:35;;;;;;;1.48;1.10;;;;;;;;;;5054757;28;20209;-84
2024/02/04 11:25:10;;;;;;;1.40;1.10;;;;;;;;;;5053874;28;20173;-84
2024/02/04 11:27:36;;;;;;;1.90;1.05;;;;;;;;;;5053834;28;20232;-84
2024/02/04 11:30:04;;;;;;;1.67;1.40;;;;;;;;;;5054082;28;20204;-84
2024/02/04 11:32:30;;;;;;;1.73;1.55;;;;;;;;;;5053910;28;20610;-84
2024/02/04 11:35:00;;;;;;;1.53;1.17;;;;;;;;;;5037925;28;20177;-84
2024/02/04 11:37:27;;;;;;;1.30;1.15;;;;;;;;;;5038359;28;20400;-85
2024/02/04 11:39:53;;;;;;;4.05;2.13;;;;;;;;;;5075047;28;20563;-84
2024/02/04 11:42:20;;;;;;;3.05;1.83;;;;;;;;;;5058040;28;20693;-83
2024/02/04 11:44:46;;;;;;;2.35;2.00;;;;;;;;;;5075619;28;20169;-83
2024/02/04 11:47:23;;;;;;;4.53;2.00;;;;;;;;;;5057651;28;20176;-84
2024/02/04 11:49:56;;;;;;;2.40;2.20;;;;;;;;;;5057815;28;20183;-84
2024/02/04 11:52:22;;;;;;;3.92;2.70;;;;;;;;;;5057362;28;20654;-82
2024/02/04 11:54:48;;;;;;;4.70;2.27;;;;;;;;;;5057772;28;20172;-83
2024/02/04 11:57:15;;;;;;;2.20;2.00;;;;;;;;;;5040704;28;20415;-83
2024/02/04 11:59:43;;;;;;;2.00;1.80;;;;;;;;;;5075363;28;20438;-83
2024/02/04 12:02:09;;;;;;;3.35;2.63;;;;;;;;;;5075841;28;20196;-82
2024/02/04 12:04:35;;;;;;;2.17;1.98;;;;;;;;;;5057100;28;20210;-83
2024/02/04 12:07:02;;;;;;;2.13;1.67;;;;;;;;;;5075123;28;20165;-84
2024/02/04 12:09:29;;;;;;;2.40;1.70;;;;;;;;;;5040413;28;20203;-83
2024/02/04 12:11:55;;;;;;;1.80;1.65;;;;;;;;;;5074951;28;20190;-86
2024/02/04 12:14:21;;;;;;;3.55;2.28;;;;;;;;;;5074834;28;20541;-84
2024/02/04 12:16:48;;;;;;;1.65;1.55;;;;;;;;;;5057672;28;20176;-84
2024/02/04 12:19:14;;;;;;;2.38;1.67;;;;;;;;;;5041074;28;20277;-83
2024/02/04 12:21:40;;;;;;;3.55;1.10;;;;;;;;;;5057177;28;20212;-83
2024/02/04 12:24:06;;;;;;;3.00;1.40;;;;;;;;;;5057484;28;20185;-82
2024/02/04 12:26:32;;;;;;;2.63;1.60;;;;;;;;;;5040489;28;20258;-82
2024/02/04 12:28:59;;;;;;;2.10;1.88;;;;;;;;;;5075570;28;20180;-82
2024/02/04 12:31:28;;;;;;;1.50;1.35;;;;;;;;;;5074867;28;20225;-82
2024/02/04 12:34:01;;;;;;;2.53;2.33;;;;;;;;;;5076786;28;20235;-83
2024/02/04 12:36:27;;;;;;;1.75;1.65;;;;;;;;;;5079575;28;20527;-81
2024/02/04 12:38:54;;;;;;;3.92;2.92;;;;;;;;;;5079977;28;20177;-82
2024/02/04 12:41:22;;;;;;;3.17;2.28;;;;;;;;;;5045259;28;20258;-84
2024/02/04 12:43:50;;;;;;;2.15;1.85;;;;;;;;;;5061509;28;20694;-81
2024/02/04 12:46:16;;;;;;;2.42;1.83;;;;;;;;;;5061499;28;20185;-82
2024/02/04 12:48:42;;;;;;;2.50;2.22;;;;;;;;;;5061512;28;20620;-82
2024/02/04 12:51:11;;;;;;;2.00;1.80;;;;;;;;;;5061237;28;20242;-82
2024/02/04 12:53:37;;;;;;;1.90;1.70;;;;;;;;;;5045343;28;20468;-81
2024/02/04 12:56:03;;;;;;;3.00;1.67;;;;;;;;;;5061602;28;20181;-82
2024/02/04 12:58:29;;;;;;;2.23;2.03;;;;;;;;;;5061269;28;20902;-81
2024/02/04 13:01:01;;;;;;;2.00;1.80;;;;;;;;;;5061626;28;20446;-82
2024/02/04 13:03:27;;;;;;;2.05;1.85;;;;;;;;;;5060572;28;20172;-80
2024/02/04 13:06:00;;;;;;;2.10;1.90;;;;;;;;;;5061142;28;20181;-81
2024/02/04 13:08:29;;;;;;;1.90;1.80;;;;;;;;;;5079298;28;20414;-80
2024/02/04 13:10:58;;;;;;;6.68;2.08;;;;;;;;;;5061872;28;20527;-81
2024/02/04 13:13:28;;;;;;;2.58;2.38;;;;;;;;;;5061171;28;20230;-82
2024/02/04 13:15:54;;;;;;;2.45;2.20;;;;;;;;;;5060836;28;20624;-82
2024/02/04 13:18:20;;;;;;;4.75;2.13;;;;;;;;;;5061703;28;20172;-83
2024/02/04 13:20:46;;;;;;;3.95;2.20;;;;;;;;;;5078679;28;20228;-81
2024/02/04 13:23:12;;;;;;;2.20;1.70;;;;;;;;;;5044298;28;20184;-83
2024/02/04 13:25:38;;;;;;;2.22;2.03;;;;;;;;;;5060404;28;20399;-85
2024/02/04 13:28:05;;;;;;;1.83;1.55;;;;;;;;;;5044021;28;20684;-83
2024/02/04 13:30:31;;;;;;;2.15;1.95;;;;;;;;;;5078284;28;20165;-82
2024/02/04 13:32:57;;;;;;;1.93;1.73;;;;;;;;;;5044226;28;20573;-83
2024/02/04 13:35:24;;;;;;;3.08;2.10;;;;;;;;;;5058697;28;20435;-82
2024/02/04 13:37:51;;;;;;;1.70;1.60;;;;;;;;;;5060672;28;20279;-83
2024/02/04 13:40:19;;;;;;;2.33;1.55;;;;;;;;;;5061279;28;20173;-82
2024/02/04 13:42:45;;;;;;;2.92;1.98;;;;;;;;;;5078137;28;20322;-82
2024/02/04 13:45:16;;;;;;;1.80;1.70;;;;;;;;;;5060583;28;20266;-82
2024/02/04 13:47:42;;;;;;;1.95;1.40;;;;;;;;;;5060107;28;20202;-84
2024/02/04 13:50:10;;;;;;;3.10;1.70;;;;;;;;;;5060756;28;20192;-83
2024/02/04 13:52:36;;;;;;;2.05;1.85;;;;;;;;;;5060105;28;20524;-81
2024/02/04 13:55:02;;;;;;;2.28;1.60;;;;;;;;;;5060224;28;20267;-81
2024/02/04 13:57:28;;;;;;;1.80;1.48;;;;;;;;;;5078222;28;20173;-83
2024/02/04 13:59:55;;;;;;;2.40;1.80;;;;;;;;;;5040676;28;20173;-83
2024/02/04 14:02:21;;;;;;;1.75;1.63;;;;;;;;;;5040132;28;20661;-84
2024/02/04 14:04:47;;;;;;;2.10;1.90;;;;;;;;;;5023496;28;20188;-83
2024/02/04 14:07:13;;;;;;;1.60;1.20;;;;;;;;;;5058008;28;20169;-83
2024/02/04 14:09:39;;;;;;;1.65;1.55;;;;;;;;;;5060387;28;20400;-84
2024/02/04 14:12:05;;;;;;;2.00;1.80;;;;;;;;;;5060287;28;20682;-84
2024/02/04 14:14:31;;;;;;;3.30;1.70;;;;;;;;;;5059416;28;20422;-82
2024/02/04 14:16:57;;;;;;;2.65;1.67;;;;;;;;;;5077103;28;20169;-84
2024/02/04 14:19:23;;;;;;;2.40;1.33;;;;;;;;;;5060224;28;20197;-85
2024/02/04 14:21:49;;;;;;;1.40;1.23;;;;;;;;;;5059095;28;20698;-84
2024/02/04 14:24:15;;;;;;;1.67;1.35;;;;;;;;;;5059483;28;20461;-85
2024/02/04 14:26:43;;;;;;;1.80;1.40;;;;;;;;;;5058818;28;20684;-86
2024/02/04 14:29:09;;;;;;;2.50;1.67;;;;;;;;;;5059588;28;20176;-84
2024/02/04 14:31:35;;;;;;;2.38;1.45;;;;;;;;;;5076576;28;20179;-84
2024/02/04 14:34:01;;;;;;;1.37;1.13;;;;;;;;;;5077456;28;20184;-84
2024/02/04 14:36:27;;;;;;;1.58;1.48;;;;;;;;;;5058715;28;20404;-85
2024/02/04 14:38:53;;;;;;;2.22;1.70;;;;;;;;;;5041791;28;20539;-85
2024/02/04 14:41:19;;;;;;;1.60;1.50;;;;;;;;;;5059043;28;20196;-86